sensor_id;sensor_type;location;lat;lon;timestamp;pressure;altitude;pressure_sealevel;temperature;humidity
84356;BME280;74539;43.518;1.504;2024-03-23T00:53:51;100195.47;;;22.59;47.32
84356;BME280;74539;43.518;1.504;2024-03-23T00:56:16;100193.53;;;22.59;46.97
84356;BME280;74539;43.518;1.504;2024-03-23T00:58:42;100196.25;;;22.59;46.79
84356;BME280;74539;43.518;1.504;2024-03-23T01:01:08;100199.31;;;22.58;47.52
84356;BME280;74539;43.518;1.504;2024-03-23T01:03:33;100208.28;;;22.58;47.60
84356;BME280;74539;43.518;1.504;2024-03-23T01:06:00;100207.78;;;22.56;47.45
84356;BME280;74539;43.518;1.504;2024-03-23T01:08:26;100215.97;;;22.56;47.00
84356;BME280;74539;43.518;1.504;2024-03-23T01:10:59;100211.66;;;22.55;46.89
84356;BME280;74539;43.518;1.504;2024-03-23T01:13:25;100217.09;;;22.55;47.00
84356;BME280;74539;43.518;1.504;2024-03-23T01:15:52;100207.63;;;22.53;47.11
84356;BME280;74539;43.518;1.504;2024-03-23T01:18:18;100207.63;;;22.53;47.49
84356;BME280;74539;43.518;1.504;2024-03-23T01:20:44;100211.16;;;22.53;46.79
84356;BME280;74539;43.518;1.504;2024-03-23T01:23:11;100219.31;;;22.53;47.29
84356;BME280;74539;43.518;1.504;2024-03-23T01:25:36;100218.88;;;22.51;47.58
84356;BME280;74539;43.518;1.504;2024-03-23T01:28:02;100217.25;;;22.50;47.09
84356;BME280;74539;43.518;1.504;2024-03-23T01:30:28;100224.63;;;22.50;46.66
84356;BME280;74539;43.518;1.504;2024-03-23T01:32:53;100223.50;;;22.51;47.74
84356;BME280;74539;43.518;1.504;2024-03-23T01:35:19;100235.50;;;22.50;47.26
84356;BME280;74539;43.518;1.504;2024-03-23T01:37:45;100229.28;;;22.49;47.26
84356;BME280;74539;43.518;1.504;2024-03-23T01:40:11;100230.84;;;22.50;47.51
84356;BME280;74539;43.518;1.504;2024-03-23T01:42:39;100236.63;;;22.49;47.24
84356;BME280;74539;43.518;1.504;2024-03-23T01:45:09;100226.53;;;22.49;47.40
84356;BME280;74539;43.518;1.504;2024-03-23T01:47:37;100233.13;;;22.48;47.22
84356;BME280;74539;43.518;1.504;2024-03-23T01:50:03;100231.50;;;22.47;47.59
84356;BME280;74539;43.518;1.504;2024-03-23T01:52:29;100236.16;;;22.47;46.69
84356;BME280;74539;43.518;1.504;2024-03-23T01:54:55;100237.59;;;22.44;47.28
84356;BME280;74539;43.518;1.504;2024-03-23T01:57:21;100244.16;;;22.43;47.07
84356;BME280;74539;43.518;1.504;2024-03-23T01:59:48;100247.69;;;22.44;47.78
84356;BME280;74539;43.518;1.504;2024-03-23T02:02:14;100233.56;;;22.41;47.61
84356;BME280;74539;43.518;1.504;2024-03-23T02:04:40;100243.38;;;22.43;47.78
84356;BME280;74539;43.518;1.504;2024-03-23T02:07:08;100242.53;;;22.42;47.51
84356;BME280;74539;43.518;1.504;2024-03-23T02:09:34;100242.06;;;22.40;47.07
84356;BME280;74539;43.518;1.504;2024-03-23T02:12:02;100252.16;;;22.39;47.21
84356;BME280;74539;43.518;1.504;2024-03-23T02:14:28;100259.22;;;22.40;47.15
84356;BME280;74539;43.518;1.504;2024-03-23T02:16:54;100255.19;;;22.38;47.43
84356;BME280;74539;43.518;1.504;2024-03-23T02:19:19;100255.19;;;22.38;47.38
84356;BME280;74539;43.518;1.504;2024-03-23T02:21:45;100254.41;;;22.37;47.76
84356;BME280;74539;43.518;1.504;2024-03-23T02:24:12;100255.84;;;22.35;47.77
84356;BME280;74539;43.518;1.504;2024-03-23T02:26:38;100264.50;;;22.37;47.42
84356;BME280;74539;43.518;1.504;2024-03-23T02:29:03;100268.31;;;22.36;47.69
84356;BME280;74539;43.518;1.504;2024-03-23T02:31:29;100263.50;;;22.33;47.67
84356;BME280;74539;43.518;1.504;2024-03-23T02:33:55;100266.72;;;22.35;47.54
84356;BME280;74539;43.518;1.504;2024-03-23T02:36:20;100271.66;;;22.33;47.26
84356;BME280;74539;43.518;1.504;2024-03-23T02:38:46;100270.56;;;22.34;47.97
84356;BME280;74539;43.518;1.504;2024-03-23T02:41:12;100265.75;;;22.31;47.13
84356;BME280;74539;43.518;1.504;2024-03-23T02:43:39;100287.53;;;22.31;47.51
84356;BME280;74539;43.518;1.504;2024-03-23T02:46:04;100295.38;;;22.32;47.51
84356;BME280;74539;43.518;1.504;2024-03-23T02:48:30;100298.44;;;22.31;47.07
84356;BME280;74539;43.518;1.504;2024-03-23T02:50:55;100308.97;;;22.32;47.69
84356;BME280;74539;43.518;1.504;2024-03-23T02:53:21;100296.81;;;22.30;47.23
84356;BME280;74539;43.518;1.504;2024-03-23T02:55:47;100309.31;;;22.31;47.52
84356;BME280;74539;43.518;1.504;2024-03-23T02:58:13;100299.53;;;22.30;47.74
84356;BME280;74539;43.518;1.504;2024-03-23T03:00:38;100291.38;;;22.30;47.22
84356;BME280;74539;43.518;1.504;2024-03-23T03:03:04;100285.75;;;22.26;47.25
84356;BME280;74539;43.518;1.504;2024-03-23T03:05:30;100292.81;;;22.27;47.32
84356;BME280;74539;43.518;1.504;2024-03-23T03:07:55;100284.97;;;22.26;47.06
84356;BME280;74539;43.518;1.504;2024-03-23T03:10:21;100290.41;;;22.26;47.35
84356;BME280;74539;43.518;1.504;2024-03-23T03:12:47;100286.88;;;22.25;47.04
84356;BME280;74539;43.518;1.504;2024-03-23T03:15:12;100283.38;;;22.25;47.32
84356;BME280;74539;43.518;1.504;2024-03-23T03:17:38;100287.19;;;22.24;47.69
84356;BME280;74539;43.518;1.504;2024-03-23T03:20:04;100286.38;;;22.23;46.82
84356;BME280;74539;43.518;1.504;2024-03-23T03:22:30;100298.06;;;22.24;47.74
84356;BME280;74539;43.518;1.504;2024-03-23T03:24:56;100301.91;;;22.23;47.66
84356;BME280;74539;43.518;1.504;2024-03-23T03:27:21;100308.00;;;22.20;47.64
84356;BME280;74539;43.518;1.504;2024-03-23T03:29:48;100316.97;;;22.20;47.15
84356;BME280;74539;43.518;1.504;2024-03-23T03:32:14;100327.06;;;22.20;47.49
84356;BME280;74539;43.518;1.504;2024-03-23T03:34:39;100331.69;;;22.19;47.36
84356;BME280;74539;43.518;1.504;2024-03-23T03:37:05;100323.53;;;22.19;47.52
84356;BME280;74539;43.518;1.504;2024-03-23T03:39:31;100306.41;;;22.18;47.44
84356;BME280;74539;43.518;1.504;2024-03-23T03:41:56;100311.84;;;22.18;46.98
84356;BME280;74539;43.518;1.504;2024-03-23T03:44:22;100305.59;;;22.18;47.09
84356;BME280;74539;43.518;1.504;2024-03-23T03:46:48;100308.63;;;22.16;47.44
84356;BME280;74539;43.518;1.504;2024-03-23T03:49:13;100317.09;;;22.15;47.41
84356;BME280;74539;43.518;1.504;2024-03-23T03:51:39;100311.66;;;22.15;47.92
84356;BME280;74539;43.518;1.504;2024-03-23T03:54:04;100330.69;;;22.15;46.81
84356;BME280;74539;43.518;1.504;2024-03-23T03:56:30;100331.00;;;22.13;46.91
84356;BME280;74539;43.518;1.504;2024-03-23T03:58:56;100336.44;;;22.13;47.26
84356;BME280;74539;43.518;1.504;2024-03-23T04:01:21;100345.75;;;22.12;47.90
84356;BME280;74539;43.518;1.504;2024-03-23T04:03:47;100348.47;;;22.12;47.15
84356;BME280;74539;43.518;1.504;2024-03-23T04:06:18;100351.97;;;22.13;47.86
84356;BME280;74539;43.518;1.504;2024-03-23T04:08:45;100349.56;;;22.11;47.53
84356;BME280;74539;43.518;1.504;2024-03-23T04:11:10;100349.56;;;22.11;47.16
84356;BME280;74539;43.518;1.504;2024-03-23T04:13:36;100365.09;;;22.11;47.61
84356;BME280;74539;43.518;1.504;2024-03-23T04:16:02;100369.22;;;22.08;47.57
84356;BME280;74539;43.518;1.504;2024-03-23T04:18:27;100367.63;;;22.07;46.90
84356;BME280;74539;43.518;1.504;2024-03-23T04:20:53;100382.03;;;22.08;47.05
84356;BME280;74539;43.518;1.504;2024-03-23T04:23:19;100386.69;;;22.07;47.78
84356;BME280;74539;43.518;1.504;2024-03-23T04:25:44;100389.41;;;22.07;47.01
84356;BME280;74539;43.518;1.504;2024-03-23T04:28:10;100395.97;;;22.06;47.06
84356;BME280;74539;43.518;1.504;2024-03-23T04:30:36;100398.19;;;22.04;46.85
84356;BME280;74539;43.518;1.504;2024-03-23T04:33:02;100399.78;;;22.05;47.19
84356;BME280;74539;43.518;1.504;2024-03-23T04:35:28;100403.63;;;22.04;47.63
84356;BME280;74539;43.518;1.504;2024-03-23T04:37:54;100405.84;;;22.02;47.24
84356;BME280;74539;43.518;1.504;2024-03-23T04:40:21;100411.28;;;22.02;46.70
84356;BME280;74539;43.518;1.504;2024-03-23T04:42:47;100415.16;;;22.01;47.03
84356;BME280;74539;43.518;1.504;2024-03-23T04:45:13;100419.47;;;22.02;47.21
84356;BME280;74539;43.518;1.504;2024-03-23T04:47:39;100420.88;;;22.00;46.98
84356;BME280;74539;43.518;1.504;2024-03-23T04:50:04;100419.78;;;22.01;46.74
84356;BME280;74539;43.518;1.504;2024-03-23T04:52:30;100433.69;;;21.99;47.04
84356;BME280;74539;43.518;1.504;2024-03-23T04:54:56;100444.56;;;21.99;47.37
84356;BME280;74539;43.518;1.504;2024-03-23T04:57:22;100448.72;;;21.96;46.85
84356;BME280;74539;43.518;1.504;2024-03-23T04:59:48;100441.38;;;21.97;46.80
84356;BME280;74539;43.518;1.504;2024-03-23T05:02:14;100439.75;;;21.96;47.05
84356;BME280;74539;43.518;1.504;2024-03-23T05:04:40;100446.31;;;21.95;47.03
84356;BME280;74539;43.518;1.504;2024-03-23T05:07:06;100442.47;;;21.96;46.94
84356;BME280;74539;43.518;1.504;2024-03-23T05:09:32;100433.84;;;21.94;47.23
84356;BME280;74539;43.518;1.504;2024-03-23T05:12:01;100433.34;;;21.92;47.38
84356;BME280;74539;43.518;1.504;2024-03-23T05:14:27;100439.28;;;21.94;47.55
84356;BME280;74539;43.518;1.504;2024-03-23T05:16:53;100435.56;;;21.90;47.46
84356;BME280;74539;43.518;1.504;2024-03-23T05:19:19;100434.75;;;21.89;47.13
84356;BME280;74539;43.518;1.504;2024-03-23T05:21:45;100439.91;;;21.91;46.66
84356;BME280;74539;43.518;1.504;2024-03-23T05:24:11;100441.63;;;21.87;47.40
84356;BME280;74539;43.518;1.504;2024-03-23T05:26:37;100445.63;;;21.89;47.10
84356;BME280;74539;43.518;1.504;2024-03-23T05:29:03;100441.16;;;21.85;47.07
84356;BME280;74539;43.518;1.504;2024-03-23T05:31:31;100444.34;;;21.87;46.85
84356;BME280;74539;43.518;1.504;2024-03-23T05:33:57;100446.25;;;21.86;47.00
84356;BME280;74539;43.518;1.504;2024-03-23T05:36:23;100451.69;;;21.86;47.45
84356;BME280;74539;43.518;1.504;2024-03-23T05:38:51;100448.47;;;21.84;46.51
84356;BME280;74539;43.518;1.504;2024-03-23T05:41:17;100444.50;;;21.82;47.37
84356;BME280;74539;43.518;1.504;2024-03-23T05:43:43;100453.44;;;21.82;46.64
84356;BME280;74539;43.518;1.504;2024-03-23T05:46:08;100453.28;;;21.79;46.98
84356;BME280;74539;43.518;1.504;2024-03-23T05:48:34;100462.41;;;21.83;46.52
84356;BME280;74539;43.518;1.504;2024-03-23T05:51:00;100460.81;;;21.82;46.83
84356;BME280;74539;43.518;1.504;2024-03-23T05:53:25;100467.66;;;21.79;46.50
84356;BME280;74539;43.518;1.504;2024-03-23T05:55:51;100470.06;;;21.81;47.29
84356;BME280;74539;43.518;1.504;2024-03-23T05:58:25;100466.88;;;21.79;46.35
84356;BME280;74539;43.518;1.504;2024-03-23T06:00:57;100466.88;;;21.79;47.19
84356;BME280;74539;43.518;1.504;2024-03-23T06:03:24;100470.69;;;21.78;46.97
84356;BME280;74539;43.518;1.504;2024-03-23T06:05:50;100471.81;;;21.77;46.23
84356;BME280;74539;43.518;1.504;2024-03-23T06:08:16;100464.78;;;21.76;46.87
84356;BME280;74539;43.518;1.504;2024-03-23T06:10:42;100461.53;;;21.73;47.00
84356;BME280;74539;43.518;1.504;2024-03-23T06:13:07;100472.94;;;21.76;46.35
84356;BME280;74539;43.518;1.504;2024-03-23T06:15:33;100474.34;;;21.73;46.86
84356;BME280;74539;43.518;1.504;2024-03-23T06:18:03;100478.16;;;21.72;46.32
84356;BME280;74539;43.518;1.504;2024-03-23T06:20:29;100484.41;;;21.72;46.17
84356;BME280;74539;43.518;1.504;2024-03-23T06:22:54;100489.03;;;21.72;46.70
84356;BME280;74539;43.518;1.504;2024-03-23T06:25:20;100487.44;;;21.71;46.93
84356;BME280;74539;43.518;1.504;2024-03-23T06:27:46;100484.22;;;21.69;46.60
84356;BME280;74539;43.518;1.504;2024-03-23T06:30:12;100485.84;;;21.70;46.52
84356;BME280;74539;43.518;1.504;2024-03-23T06:32:38;100495.09;;;21.69;46.29
84356;BME280;74539;43.518;1.504;2024-03-23T06:35:04;100497.50;;;21.70;46.81
84356;BME280;74539;43.518;1.504;2024-03-23T06:37:34;100505.16;;;21.68;46.34
84356;BME280;74539;43.518;1.504;2024-03-23T06:40:00;100494.28;;;21.68;46.26
84356;BME280;74539;43.518;1.504;2024-03-23T06:42:25;100509.00;;;21.67;46.26
84356;BME280;74539;43.518;1.504;2024-03-23T06:44:51;100502.78;;;21.67;46.38
84356;BME280;74539;43.518;1.504;2024-03-23T06:47:16;100513.66;;;21.67;46.60
84356;BME280;74539;43.518;1.504;2024-03-23T06:49:42;100508.81;;;21.64;46.56
84356;BME280;74539;43.518;1.504;2024-03-23T06:52:08;100515.06;;;21.64;46.00
84356;BME280;74539;43.518;1.504;2024-03-23T06:54:33;100508.00;;;21.63;46.44
84356;BME280;74539;43.518;1.504;2024-03-23T06:56:59;100518.88;;;21.63;46.36
84356;BME280;74539;43.518;1.504;2024-03-23T06:59:25;100527.53;;;21.65;47.09
84356;BME280;74539;43.518;1.504;2024-03-23T07:01:50;100524.31;;;21.63;46.75
84356;BME280;74539;43.518;1.504;2024-03-23T07:04:16;100529.75;;;21.63;46.64
84356;BME280;74539;43.518;1.504;2024-03-23T07:06:43;100530.56;;;21.64;46.97
84356;BME280;74539;43.518;1.504;2024-03-23T07:09:09;100522.72;;;21.62;46.15
84356;BME280;74539;43.518;1.504;2024-03-23T07:11:35;100526.56;;;21.61;46.19
84356;BME280;74539;43.518;1.504;2024-03-23T07:14:01;100531.19;;;21.61;46.07
84356;BME280;74539;43.518;1.504;2024-03-23T07:16:28;100527.97;;;21.59;46.50
84356;BME280;74539;43.518;1.504;2024-03-23T07:18:54;100539.63;;;21.59;46.33
84356;BME280;74539;43.518;1.504;2024-03-23T07:21:19;100540.44;;;21.60;47.20
84356;BME280;74539;43.518;1.504;2024-03-23T07:23:45;100535.31;;;21.58;46.59
84356;BME280;74539;43.518;1.504;2024-03-23T07:26:11;100529.38;;;21.56;46.49
84356;BME280;74539;43.518;1.504;2024-03-23T07:28:37;100541.84;;;21.57;46.69
84356;BME280;74539;43.518;1.504;2024-03-23T07:31:08;100547.28;;;21.57;46.67
84356;BME280;74539;43.518;1.504;2024-03-23T07:33:35;100537.03;;;21.54;46.39
84356;BME280;74539;43.518;1.504;2024-03-23T07:36:01;100546.00;;;21.55;46.49
84356;BME280;74539;43.518;1.504;2024-03-23T07:38:30;100545.19;;;21.54;46.54
84356;BME280;74539;43.518;1.504;2024-03-23T07:41:22;100562.63;;;21.53;46.89
84356;BME280;74539;43.518;1.504;2024-03-23T07:43:48;100557.19;;;21.53;46.14
84356;BME280;74539;43.518;1.504;2024-03-23T07:46:15;100566.47;;;21.52;46.40
84356;BME280;74539;43.518;1.504;2024-03-23T07:48:41;100573.50;;;21.53;46.90
84356;BME280;74539;43.518;1.504;2024-03-23T07:51:14;100571.91;;;21.52;46.12
84356;BME280;74539;43.518;1.504;2024-03-23T07:53:43;100583.06;;;21.50;46.46
84356;BME280;74539;43.518;1.504;2024-03-23T07:56:10;100587.41;;;21.52;46.84
84356;BME280;74539;43.518;1.504;2024-03-23T07:58:36;100591.53;;;21.49;46.14
84356;BME280;74539;43.518;1.504;2024-03-23T08:01:10;100599.69;;;21.49;46.52
84356;BME280;74539;43.518;1.504;2024-03-23T08:03:36;100595.34;;;21.48;46.38
84356;BME280;74539;43.518;1.504;2024-03-23T08:06:19;100604.63;;;21.47;46.86
84356;BME280;74539;43.518;1.504;2024-03-23T08:08:47;100611.97;;;21.46;46.11
84356;BME280;74539;43.518;1.504;2024-03-23T08:11:13;100616.28;;;21.47;46.60
84356;BME280;74539;43.518;1.504;2024-03-23T08:13:41;100619.63;;;21.44;46.55
84356;BME280;74539;43.518;1.504;2024-03-23T08:16:08;100624.75;;;21.46;46.11
84356;BME280;74539;43.518;1.504;2024-03-23T08:18:37;100626.97;;;21.44;46.37
84356;BME280;74539;43.518;1.504;2024-03-23T08:21:04;100630.00;;;21.42;46.01
84356;BME280;74539;43.518;1.504;2024-03-23T08:23:31;100646.81;;;21.44;45.95
84356;BME280;74539;43.518;1.504;2024-03-23T08:26:06;100651.44;;;21.44;46.53
84356;BME280;74539;43.518;1.504;2024-03-23T08:28:32;100650.31;;;21.45;46.27
84356;BME280;74539;43.518;1.504;2024-03-23T08:31:01;100657.19;;;21.42;47.00
84356;BME280;74539;43.518;1.504;2024-03-23T08:33:26;100662.91;;;21.41;46.51
84356;BME280;74539;43.518;1.504;2024-03-23T08:35:56;100664.53;;;21.42;46.22
84356;BME280;74539;43.518;1.504;2024-03-23T08:38:26;100668.34;;;21.41;47.15
84356;BME280;74539;43.518;1.504;2024-03-23T08:41:05;100673.50;;;21.42;46.34
84356;BME280;74539;43.518;1.504;2024-03-23T08:43:33;100676.50;;;21.41;46.52
84356;BME280;74539;43.518;1.504;2024-03-23T08:46:08;100683.53;;;21.42;46.39
84356;BME280;74539;43.518;1.504;2024-03-23T08:48:42;100684.16;;;21.39;46.81
84356;BME280;74539;43.518;1.504;2024-03-23T08:51:10;100690.09;;;21.41;46.25
84356;BME280;74539;43.518;1.504;2024-03-23T08:53:36;100685.28;;;21.38;46.97
84356;BME280;74539;43.518;1.504;2024-03-23T08:56:03;100688.50;;;21.40;46.19
84356;BME280;74539;43.518;1.504;2024-03-23T08:58:29;100693.94;;;21.40;46.45
84356;BME280;74539;43.518;1.504;2024-03-23T09:00:56;100697.75;;;21.39;46.77
84356;BME280;74539;43.518;1.504;2024-03-23T09:03:26;100693.41;;;21.38;47.06
84356;BME280;74539;43.518;1.504;2024-03-23T09:05:52;100693.41;;;21.38;46.96
84356;BME280;74539;43.518;1.504;2024-03-23T09:08:18;100698.56;;;21.39;46.40
84356;BME280;74539;43.518;1.504;2024-03-23T09:10:44;100701.56;;;21.38;46.76
84356;BME280;74539;43.518;1.504;2024-03-23T09:13:10;100693.41;;;21.38;46.85
84356;BME280;74539;43.518;1.504;2024-03-23T09:15:37;100689.09;;;21.37;47.09
84356;BME280;74539;43.518;1.504;2024-03-23T09:18:03;100698.06;;;21.37;46.83
84356;BME280;74539;43.518;1.504;2024-03-23T09:20:32;100699.97;;;21.37;46.60
84356;BME280;74539;43.518;1.504;2024-03-23T09:22:58;100698.63;;;21.34;46.28
84356;BME280;74539;43.518;1.504;2024-03-23T09:25:24;100699.97;;;21.37;46.24
84356;BME280;74539;43.518;1.504;2024-03-23T09:27:50;100703.78;;;21.36;46.30
84356;BME280;74539;43.518;1.504;2024-03-23T09:30:16;100700.53;;;21.34;45.98
84356;BME280;74539;43.518;1.504;2024-03-23T09:32:43;100698.34;;;21.36;46.38
84356;BME280;74539;43.518;1.504;2024-03-23T09:35:09;100698.63;;;21.34;46.43
84356;BME280;74539;43.518;1.504;2024-03-23T09:37:35;100700.53;;;21.34;45.94
84356;BME280;74539;43.518;1.504;2024-03-23T09:40:01;100711.41;;;21.34;46.61
84356;BME280;74539;43.518;1.504;2024-03-23T09:42:28;100710.31;;;21.35;47.20
84356;BME280;74539;43.518;1.504;2024-03-23T09:44:54;100704.34;;;21.33;47.04
84356;BME280;74539;43.518;1.504;2024-03-23T09:47:23;100715.75;;;21.35;46.74
84356;BME280;74539;43.518;1.504;2024-03-23T09:49:50;100708.38;;;21.35;46.01
84356;BME280;74539;43.518;1.504;2024-03-23T09:52:16;100710.84;;;21.37;45.77
84356;BME280;74539;43.518;1.504;2024-03-23T09:54:42;100706.78;;;21.34;46.21
84356;BME280;74539;43.518;1.504;2024-03-23T09:57:08;100707.59;;;21.35;46.64
84356;BME280;74539;43.518;1.504;2024-03-23T09:59:33;100700.53;;;21.34;46.38
84356;BME280;74539;43.518;1.504;2024-03-23T10:02:01;100704.88;;;21.35;46.17
84356;BME280;74539;43.518;1.504;2024-03-23T10:04:41;100707.59;;;21.35;45.79
84356;BME280;74539;43.518;1.504;2024-03-23T10:07:18;100711.41;;;21.34;45.89
84356;BME280;74539;43.518;1.504;2024-03-23T10:09:45;100695.91;;;21.34;46.12
84356;BME280;74539;43.518;1.504;2024-03-23T10:12:19;100696.19;;;21.33;46.32
84356;BME280;74539;43.518;1.504;2024-03-23T10:14:45;100697.81;;;21.34;45.99
84356;BME280;74539;43.518;1.504;2024-03-23T10:17:17;100695.09;;;21.34;46.38
84356;BME280;74539;43.518;1.504;2024-03-23T10:19:47;100682.59;;;21.33;46.02
84356;BME280;74539;43.518;1.504;2024-03-23T10:22:26;100689.97;;;21.32;46.28
84356;BME280;74539;43.518;1.504;2024-03-23T10:24:52;100679.88;;;21.33;46.23
84356;BME280;74539;43.518;1.504;2024-03-23T10:27:20;100677.16;;;21.33;45.92
84356;BME280;74539;43.518;1.504;2024-03-23T10:29:49;100686.94;;;21.34;45.89
84356;BME280;74539;43.518;1.504;2024-03-23T10:32:17;100681.53;;;21.34;45.57
84356;BME280;74539;43.518;1.504;2024-03-23T10:34:43;100675.56;;;21.32;45.77
84356;BME280;74539;43.518;1.504;2024-03-23T10:37:09;100673.97;;;21.31;46.30
84356;BME280;74539;43.518;1.504;2024-03-23T10:39:39;100664.69;;;21.32;46.01
84356;BME280;74539;43.518;1.504;2024-03-23T10:42:09;100667.41;;;21.32;46.17
84356;BME280;74539;43.518;1.504;2024-03-23T10:44:39;100657.34;;;21.32;45.94
84356;BME280;74539;43.518;1.504;2024-03-23T10:47:05;100655.44;;;21.33;45.85
84356;BME280;74539;43.518;1.504;2024-03-23T10:49:34;100652.72;;;21.33;45.82
84356;BME280;74539;43.518;1.504;2024-03-23T10:52:02;100653.81;;;21.32;45.91
84356;BME280;74539;43.518;1.504;2024-03-23T10:54:30;100646.78;;;21.31;45.86
84356;BME280;74539;43.518;1.504;2024-03-23T10:57:27;100635.41;;;21.28;45.08
84356;BME280;74539;43.518;1.504;2024-03-23T10:59:55;100639.44;;;21.31;45.62
84356;BME280;74539;43.518;1.504;2024-03-23T11:02:22;100632.09;;;21.32;46.26
84356;BME280;74539;43.518;1.504;2024-03-23T11:04:47;100620.22;;;21.27;45.64
84356;BME280;74539;43.518;1.504;2024-03-23T11:09:51;100628.84;;;21.30;46.31
84356;BME280;74539;43.518;1.504;2024-03-23T11:15:10;100627.25;;;21.28;45.41
84356;BME280;74539;43.518;1.504;2024-03-23T11:17:36;100616.38;;;21.28;45.71
84356;BME280;74539;43.518;1.504;2024-03-23T11:20:06;100613.94;;;21.27;46.18
84356;BME280;74539;43.518;1.504;2024-03-23T11:25:11;100603.06;;;21.27;45.52
84356;BME280;74539;43.518;1.504;2024-03-23T11:27:37;100600.34;;;21.27;45.43
84356;BME280;74539;43.518;1.504;2024-03-23T11:30:11;100594.63;;;21.28;45.03
84356;BME280;74539;43.518;1.504;2024-03-23T11:32:37;100584.38;;;21.25;45.76
84356;BME280;74539;43.518;1.504;2024-03-23T11:35:03;100575.41;;;21.25;45.39
84356;BME280;74539;43.518;1.504;2024-03-23T11:37:29;100577.03;;;21.26;45.78
84356;BME280;74539;43.518;1.504;2024-03-23T11:39:54;100579.72;;;21.26;45.21
84356;BME280;74539;43.518;1.504;2024-03-23T11:42:20;100573.50;;;21.25;45.26
84356;BME280;74539;43.518;1.504;2024-03-23T11:44:47;100574.31;;;21.26;46.12
84356;BME280;74539;43.518;1.504;2024-03-23T11:47:13;100556.06;;;21.26;45.01
84356;BME280;74539;43.518;1.504;2024-03-23T11:49:38;100551.75;;;21.25;45.16
84356;BME280;74539;43.518;1.504;2024-03-23T11:52:06;100552.88;;;21.24;45.48
84356;BME280;74539;43.518;1.504;2024-03-23T11:57:08;100550.16;;;21.24;45.08
84356;BME280;74539;43.518;1.504;2024-03-23T11:59:35;100550.16;;;21.24;45.38
84356;BME280;74539;43.518;1.504;2024-03-23T12:02:06;100545.81;;;21.23;45.14
84356;BME280;74539;43.518;1.504;2024-03-23T12:04:32;100537.66;;;21.23;45.34
84356;BME280;74539;43.518;1.504;2024-03-23T12:09:36;100539.28;;;21.24;45.17
84356;BME280;74539;43.518;1.504;2024-03-23T12:12:10;100532.22;;;21.23;45.35
84356;BME280;74539;43.518;1.504;2024-03-23T12:14:36;100533.84;;;21.24;44.94
84356;BME280;74539;43.518;1.504;2024-03-23T12:19:41;100511.59;;;21.22;45.39
84356;BME280;74539;43.518;1.504;2024-03-23T12:22:10;100518.16;;;21.21;44.89
84356;BME280;74539;43.518;1.504;2024-03-23T12:24:36;100505.06;;;21.23;44.95
84356;BME280;74539;43.518;1.504;2024-03-23T12:27:05;100511.28;;;21.24;45.01
84356;BME280;74539;43.518;1.504;2024-03-23T12:29:31;100506.69;;;21.24;45.43
84356;BME280;74539;43.518;1.504;2024-03-23T12:32:01;100504.56;;;21.21;45.66
84356;BME280;74539;43.518;1.504;2024-03-23T12:34:28;100522.16;;;21.24;45.18
84356;BME280;74539;43.518;1.504;2024-03-23T12:39:20;100474.69;;;21.21;44.82
84356;BME280;74539;43.518;1.504;2024-03-23T12:41:49;100475.16;;;21.23;44.85
84356;BME280;74539;43.518;1.504;2024-03-23T12:44:15;100455.94;;;21.20;45.50
84356;BME280;74539;43.518;1.504;2024-03-23T12:46:42;100472.44;;;21.23;44.85
84356;BME280;74539;43.518;1.504;2024-03-23T12:49:08;100460.25;;;21.21;45.03
84356;BME280;74539;43.518;1.504;2024-03-23T12:51:33;100471.34;;;21.24;45.32
84356;BME280;74539;43.518;1.504;2024-03-23T12:53:59;100467.81;;;21.24;45.19
84356;BME280;74539;43.518;1.504;2024-03-23T12:56:25;100457.75;;;21.24;45.22
84356;BME280;74539;43.518;1.504;2024-03-23T12:58:53;100453.13;;;21.25;45.49
84356;BME280;74539;43.518;1.504;2024-03-23T13:01:20;100448.50;;;21.25;44.85
84356;BME280;74539;43.518;1.504;2024-03-23T13:03:50;100443.84;;;21.26;45.23
84356;BME280;74539;43.518;1.504;2024-03-23T13:06:16;100433.31;;;21.24;44.77
84356;BME280;74539;43.518;1.504;2024-03-23T13:08:47;100423.53;;;21.23;44.56
84356;BME280;74539;43.518;1.504;2024-03-23T13:11:15;100434.91;;;21.25;44.46
84356;BME280;74539;43.518;1.504;2024-03-23T13:13:41;100429.47;;;21.25;44.39
84356;BME280;74539;43.518;1.504;2024-03-23T13:16:07;100426.25;;;21.23;45.27
84356;BME280;74539;43.518;1.504;2024-03-23T13:18:33;100410.75;;;21.24;44.43
84356;BME280;74539;43.518;1.504;2024-03-23T13:20:59;100410.44;;;21.25;45.43
84356;BME280;74539;43.518;1.504;2024-03-23T13:23:25;100397.97;;;21.24;44.63
84356;BME280;74539;43.518;1.504;2024-03-23T13:25:51;100396.84;;;21.25;45.04
84356;BME280;74539;43.518;1.504;2024-03-23T13:28:19;100403.41;;;21.24;44.72
84356;BME280;74539;43.518;1.504;2024-03-23T13:33:18;100396.06;;;21.25;45.08
84356;BME280;74539;43.518;1.504;2024-03-23T13:38:15;100378.63;;;21.26;44.69
84356;BME280;74539;43.518;1.504;2024-03-23T13:40:52;100382.94;;;21.27;45.17
84356;BME280;74539;43.518;1.504;2024-03-23T13:43:18;100383.78;;;21.27;44.66
84356;BME280;74539;43.518;1.504;2024-03-23T13:45:45;100375.63;;;21.27;44.93
84356;BME280;74539;43.518;1.504;2024-03-23T13:48:11;100380.22;;;21.27;44.70
84356;BME280;74539;43.518;1.504;2024-03-23T13:50:37;100375.63;;;21.27;44.48
84356;BME280;74539;43.518;1.504;2024-03-23T13:53:02;100367.16;;;21.29;44.69
84356;BME280;74539;43.518;1.504;2024-03-23T13:55:28;100373.38;;;21.30;44.88
84356;BME280;74539;43.518;1.504;2024-03-23T13:57:54;100359.31;;;21.27;44.90
84356;BME280;74539;43.518;1.504;2024-03-23T14:00:20;100357.06;;;21.30;45.31
84356;BME280;74539;43.518;1.504;2024-03-23T14:02:45;100350.84;;;21.29;44.80
84356;BME280;74539;43.518;1.504;2024-03-23T14:05:11;100351.63;;;21.30;45.09